sensor_id;sensor_type;location;lat;lon;timestamp;pressure;altitude;pressure_sealevel;temperature;humidity
37634;BME280;32048;49.902;22.508;2023-03-16T00:02:10;98687.56;;;0.93;100.00
37634;BME280;32048;49.902;22.508;2023-03-16T00:04:38;98691.94;;;0.90;100.00
37634;BME280;32048;49.902;22.508;2023-03-16T00:07:07;98685.03;;;0.89;100.00
37634;BME280;32048;49.902;22.508;2023-03-16T00:09:35;98690.28;;;0.84;100.00
37634;BME280;32048;49.902;22.508;2023-03-16T00:12:11;98694.66;;;0.80;100.00
37634;BME280;32048;49.902;22.508;2023-03-16T00:14:47;98690.38;;;0.78;100.00
37634;BME280;32048;49.902;22.508;2023-03-16T00:17:16;98699.91;;;0.77;100.00
37634;BME280;32048;49.902;22.508;2023-03-16T00:19:52;98699.97;;;0.71;100.00
37634;BME280;32048;49.902;22.508;2023-03-16T00:22:23;98707.84;;;0.68;100.00
37634;BME280;32048;49.902;22.508;2023-03-16T00:24:51;98702.69;;;0.65;100.00
37634;BME280;32048;49.902;22.508;2023-03-16T00:27:19;98707.03;;;0.63;100.00
37634;BME280;32048;49.902;22.508;2023-03-16T00:29:50;98702.69;;;0.62;100.00
37634;BME280;32048;49.902;22.508;2023-03-16T00:32:27;98707.06;;;0.61;100.00
37634;BME280;32048;49.902;22.508;2023-03-16T00:34:55;98707.09;;;0.57;100.00
37634;BME280;32048;49.902;22.508;2023-03-16T00:37:24;98705.38;;;0.56;100.00
37634;BME280;32048;49.902;22.508;2023-03-16T00:39:52;98708.00;;;0.54;100.00
37634;BME280;32048;49.902;22.508;2023-03-16T00:42:26;98706.28;;;0.53;100.00
37634;BME280;32048;49.902;22.508;2023-03-16T00:44:55;98703.69;;;0.53;100.00
37634;BME280;32048;49.902;22.508;2023-03-16T00:47:30;98706.38;;;0.47;100.00
37634;BME280;32048;49.902;22.508;2023-03-16T00:49:58;98698.59;;;0.44;100.00
37634;BME280;32048;49.902;22.508;2023-03-16T00:52:28;98699.44;;;0.45;100.00
37634;BME280;32048;49.902;22.508;2023-03-16T00:54:56;98705.53;;;0.44;100.00
37634;BME280;32048;49.902;22.508;2023-03-16T00:57:24;98706.44;;;0.41;100.00
37634;BME280;32048;49.902;22.508;2023-03-16T00:59:52;98702.09;;;0.43;100.00
37634;BME280;32048;49.902;22.508;2023-03-16T01:02:19;98708.16;;;0.42;100.00
37634;BME280;32048;49.902;22.508;2023-03-16T01:04:50;98710.75;;;0.42;100.00
37634;BME280;32048;49.902;22.508;2023-03-16T01:07:18;98708.19;;;0.39;100.00
37634;BME280;32048;49.902;22.508;2023-03-16T01:09:47;98713.38;;;0.39;100.00
37634;BME280;32048;49.902;22.508;2023-03-16T01:12:17;98716.84;;;0.39;100.00
37634;BME280;32048;49.902;22.508;2023-03-16T01:14:45;98712.50;;;0.40;100.00
37634;BME280;32048;49.902;22.508;2023-03-16T01:17:13;98717.75;;;0.37;100.00
37634;BME280;32048;49.902;22.508;2023-03-16T01:19:41;98714.25;;;0.38;100.00
37634;BME280;32048;49.902;22.508;2023-03-16T01:22:09;98729.81;;;0.39;100.00
37634;BME280;32048;49.902;22.508;2023-03-16T01:24:38;98719.44;;;0.38;100.00
37634;BME280;32048;49.902;22.508;2023-03-16T01:27:06;98716.00;;;0.37;100.00
37634;BME280;32048;49.902;22.508;2023-03-16T01:29:33;98724.69;;;0.35;100.00
37634;BME280;32048;49.902;22.508;2023-03-16T01:32:01;98722.94;;;0.35;100.00
37634;BME280;32048;49.902;22.508;2023-03-16T01:34:29;98730.78;;;0.34;100.00
37634;BME280;32048;49.902;22.508;2023-03-16T01:36:57;98727.38;;;0.26;100.00
37634;BME280;32048;49.902;22.508;2023-03-16T01:39:25;98721.34;;;0.24;100.00
37634;BME280;32048;49.902;22.508;2023-03-16T01:41:52;98726.59;;;0.17;100.00
37634;BME280;32048;49.902;22.508;2023-03-16T01:44:24;98724.06;;;0.13;100.00
37634;BME280;32048;49.902;22.508;2023-03-16T01:46:56;98732.75;;;0.09;100.00
37634;BME280;32048;49.902;22.508;2023-03-16T01:51:59;98733.72;;;0.00;100.00
37634;BME280;32048;49.902;22.508;2023-03-16T01:54:40;98738.13;;;-0.10;100.00
37634;BME280;32048;49.902;22.508;2023-03-16T01:57:14;98742.50;;;-0.15;100.00
37634;BME280;32048;49.902;22.508;2023-03-16T02:02:12;98744.34;;;-0.26;100.00
37634;BME280;32048;49.902;22.508;2023-03-16T02:04:42;98740.09;;;-0.35;100.00
37634;BME280;32048;49.902;22.508;2023-03-16T02:07:11;98744.47;;;-0.42;100.00
37634;BME280;32048;49.902;22.508;2023-03-16T02:09:40;98749.69;;;-0.45;100.00
37634;BME280;32048;49.902;22.508;2023-03-16T02:12:10;98738.47;;;-0.48;100.00
37634;BME280;32048;49.902;22.508;2023-03-16T02:14:48;98740.25;;;-0.53;100.00
37634;BME280;32048;49.902;22.508;2023-03-16T02:17:19;98747.13;;;-0.52;100.00
37634;BME280;32048;49.902;22.508;2023-03-16T02:22:25;98751.53;;;-0.64;100.00
37634;BME280;32048;49.902;22.508;2023-03-16T02:24:54;98755.88;;;-0.63;100.00
37634;BME280;32048;49.902;22.508;2023-03-16T02:30:16;98755.88;;;-0.66;100.00
37634;BME280;32048;49.902;22.508;2023-03-16T02:32:44;98765.44;;;-0.69;100.00
37634;BME280;32048;49.902;22.508;2023-03-16T02:35:13;98764.53;;;-0.68;100.00
37634;BME280;32048;49.902;22.508;2023-03-16T02:37:40;98761.97;;;-0.73;100.00
37634;BME280;32048;49.902;22.508;2023-03-16T02:40:21;98773.25;;;-0.78;100.00
37634;BME280;32048;49.902;22.508;2023-03-16T02:42:57;98772.38;;;-0.79;100.00
37634;BME280;32048;49.902;22.508;2023-03-16T02:48:41;98774.97;;;-0.79;100.00
37634;BME280;32048;49.902;22.508;2023-03-16T02:51:05;98776.75;;;-0.84;100.00
37634;BME280;32048;49.902;22.508;2023-03-16T02:53:32;98784.50;;;-0.84;100.00
37634;BME280;32048;49.902;22.508;2023-03-16T02:56:00;98783.66;;;-0.86;100.00
37634;BME280;32048;49.902;22.508;2023-03-16T02:58:29;98787.13;;;-0.90;100.00
37634;BME280;32048;49.902;22.508;2023-03-16T03:00:56;98793.19;;;-0.91;100.00
37634;BME280;32048;49.902;22.508;2023-03-16T03:03:23;98789.75;;;-0.95;100.00
37634;BME280;32048;49.902;22.508;2023-03-16T03:05:51;98793.22;;;-0.96;100.00
37634;BME280;32048;49.902;22.508;2023-03-16T03:08:18;98795.81;;;-0.97;100.00
37634;BME280;32048;49.902;22.508;2023-03-16T03:10:48;98799.28;;;-0.98;100.00
37634;BME280;32048;49.902;22.508;2023-03-16T03:13:16;98801.00;;;-0.97;100.00
37634;BME280;32048;49.902;22.508;2023-03-16T03:15:43;98796.72;;;-1.03;100.00
37634;BME280;32048;49.902;22.508;2023-03-16T03:18:11;98798.44;;;-1.02;100.00
37634;BME280;32048;49.902;22.508;2023-03-16T03:20:38;98801.91;;;-1.03;100.00
37634;BME280;32048;49.902;22.508;2023-03-16T03:23:05;98803.63;;;-1.00;100.00
37634;BME280;32048;49.902;22.508;2023-03-16T03:25:32;98810.50;;;-0.98;100.00
37634;BME280;32048;49.902;22.508;2023-03-16T03:28:03;98801.84;;;-0.97;100.00
37634;BME280;32048;49.902;22.508;2023-03-16T03:30:31;98809.63;;;-0.97;100.00
37634;BME280;32048;49.902;22.508;2023-03-16T03:32:58;98812.22;;;-0.95;100.00
37634;BME280;32048;49.902;22.508;2023-03-16T03:35:26;98815.69;;;-0.98;100.00
37634;BME280;32048;49.902;22.508;2023-03-16T03:37:53;98831.25;;;-0.96;100.00
37634;BME280;32048;49.902;22.508;2023-03-16T03:40:20;98832.09;;;-0.97;100.00
37634;BME280;32048;49.902;22.508;2023-03-16T03:42:47;98835.56;;;-0.95;100.00
37634;BME280;32048;49.902;22.508;2023-03-16T03:45:15;98835.56;;;-0.95;100.00
37634;BME280;32048;49.902;22.508;2023-03-16T03:47:42;98845.91;;;-0.95;100.00
37634;BME280;32048;49.902;22.508;2023-03-16T03:50:11;98840.75;;;-0.94;100.00
37634;BME280;32048;49.902;22.508;2023-03-16T03:52:39;98841.56;;;-0.90;100.00
37634;BME280;32048;49.902;22.508;2023-03-16T03:55:07;98840.69;;;-0.88;100.00
37634;BME280;32048;49.902;22.508;2023-03-16T03:57:34;98849.31;;;-0.86;100.00
37634;BME280;32048;49.902;22.508;2023-03-16T04:00:04;98847.59;;;-0.82;100.00
37634;BME280;32048;49.902;22.508;2023-03-16T04:02:35;98845.00;;;-0.80;100.00
37634;BME280;32048;49.902;22.508;2023-03-16T04:05:03;98852.75;;;-0.79;100.00
37634;BME280;32048;49.902;22.508;2023-03-16T04:07:30;98852.75;;;-0.77;100.00
37634;BME280;32048;49.902;22.508;2023-03-16T04:09:57;98854.47;;;-0.76;100.00
37634;BME280;32048;49.902;22.508;2023-03-16T04:12:24;98850.13;;;-0.73;100.00
37634;BME280;32048;49.902;22.508;2023-03-16T04:14:52;98855.31;;;-0.73;100.00
37634;BME280;32048;49.902;22.508;2023-03-16T04:17:19;98852.72;;;-0.73;100.00
37634;BME280;32048;49.902;22.508;2023-03-16T04:19:46;98844.94;;;-0.74;100.00
37634;BME280;32048;49.902;22.508;2023-03-16T04:22:13;98846.69;;;-0.75;100.00
37634;BME280;32048;49.902;22.508;2023-03-16T04:24:41;98852.75;;;-0.76;100.00
37634;BME280;32048;49.902;22.508;2023-03-16T04:27:09;98852.75;;;-0.76;100.00
37634;BME280;32048;49.902;22.508;2023-03-16T04:29:38;98852.75;;;-0.77;100.00
37634;BME280;32048;49.902;22.508;2023-03-16T04:32:06;98860.53;;;-0.76;100.00
37634;BME280;32048;49.902;22.508;2023-03-16T04:34:33;98865.72;;;-0.76;100.00
37634;BME280;32048;49.902;22.508;2023-03-16T04:37:00;98864.84;;;-0.72;100.00
37634;BME280;32048;49.902;22.508;2023-03-16T04:39:28;98867.41;;;-0.70;100.00
37634;BME280;32048;49.902;22.508;2023-03-16T04:41:55;98870.84;;;-0.67;100.00
37634;BME280;32048;49.902;22.508;2023-03-16T04:44:22;98873.44;;;-0.62;100.00
37634;BME280;32048;49.902;22.508;2023-03-16T04:46:51;98873.41;;;-0.57;100.00
37634;BME280;32048;49.902;22.508;2023-03-16T04:49:18;98876.00;;;-0.56;100.00
37634;BME280;32048;49.902;22.508;2023-03-16T04:51:45;98880.31;;;-0.53;100.00
37634;BME280;32048;49.902;22.508;2023-03-16T04:54:12;98886.31;;;-0.48;100.00
37634;BME280;32048;49.902;22.508;2023-03-16T04:56:39;98884.56;;;-0.46;100.00
37634;BME280;32048;49.902;22.508;2023-03-16T04:59:07;98887.16;;;-0.43;100.00
37634;BME280;32048;49.902;22.508;2023-03-16T05:01:34;98893.19;;;-0.41;100.00
37634;BME280;32048;49.902;22.508;2023-03-16T05:04:01;98902.69;;;-0.35;100.00
37634;BME280;32048;49.902;22.508;2023-03-16T05:06:28;98906.13;;;-0.33;100.00
37634;BME280;32048;49.902;22.508;2023-03-16T05:08:58;98911.28;;;-0.32;100.00
37634;BME280;32048;49.902;22.508;2023-03-16T05:11:25;98911.28;;;-0.30;100.00
37634;BME280;32048;49.902;22.508;2023-03-16T05:13:53;98912.16;;;-0.30;100.00
37634;BME280;32048;49.902;22.508;2023-03-16T05:16:20;98915.59;;;-0.26;100.00
37634;BME280;32048;49.902;22.508;2023-03-16T05:18:47;98922.53;;;-0.27;100.00
37634;BME280;32048;49.902;22.508;2023-03-16T05:21:14;98917.34;;;-0.28;100.00
37634;BME280;32048;49.902;22.508;2023-03-16T05:23:42;98920.78;;;-0.25;100.00
37634;BME280;32048;49.902;22.508;2023-03-16T05:26:09;98924.25;;;-0.26;100.00
37634;BME280;32048;49.902;22.508;2023-03-16T05:28:37;98924.25;;;-0.24;100.00
37634;BME280;32048;49.902;22.508;2023-03-16T05:31:04;98931.16;;;-0.25;100.00
37634;BME280;32048;49.902;22.508;2023-03-16T05:33:31;98925.94;;;-0.23;100.00
37634;BME280;32048;49.902;22.508;2023-03-16T05:35:58;98925.94;;;-0.23;100.00
37634;BME280;32048;49.902;22.508;2023-03-16T05:38:25;98930.25;;;-0.21;100.00
37634;BME280;32048;49.902;22.508;2023-03-16T05:40:53;98932.81;;;-0.16;100.00
37634;BME280;32048;49.902;22.508;2023-03-16T05:43:20;98932.78;;;-0.11;100.00
37634;BME280;32048;49.902;22.508;2023-03-16T05:45:48;98941.44;;;-0.08;100.00
37634;BME280;32048;49.902;22.508;2023-03-16T05:48:16;98941.41;;;-0.05;100.00
37634;BME280;32048;49.902;22.508;2023-03-16T05:50:43;98947.44;;;-0.03;100.00
37634;BME280;32048;49.902;22.508;2023-03-16T05:53:10;98949.97;;;0.07;100.00
37634;BME280;32048;49.902;22.508;2023-03-16T05:55:37;98939.59;;;0.11;100.00
37634;BME280;32048;49.902;22.508;2023-03-16T05:58:04;98950.81;;;0.16;100.00
37634;BME280;32048;49.902;22.508;2023-03-16T06:00:32;98942.94;;;0.26;100.00
37634;BME280;32048;49.902;22.508;2023-03-16T06:02:59;98945.47;;;0.36;100.00
37634;BME280;32048;49.902;22.508;2023-03-16T06:05:27;98952.28;;;0.48;100.00
37634;BME280;32048;49.902;22.508;2023-03-16T06:07:55;98958.25;;;0.58;100.00
37634;BME280;32048;49.902;22.508;2023-03-16T06:10:23;98963.38;;;0.70;100.00
37634;BME280;32048;49.902;22.508;2023-03-16T06:12:52;98953.75;;;0.80;100.00
37634;BME280;32048;49.902;22.508;2023-03-16T06:15:19;98960.50;;;0.96;100.00
37634;BME280;32048;49.902;22.508;2023-03-16T06:17:46;98976.00;;;1.09;100.00
37634;BME280;32048;49.902;22.508;2023-03-16T06:20:14;98967.28;;;1.13;100.00
37634;BME280;32048;49.902;22.508;2023-03-16T06:22:43;98970.66;;;1.21;100.00
37634;BME280;32048;49.902;22.508;2023-03-16T06:25:11;98971.41;;;1.32;100.00
37634;BME280;32048;49.902;22.508;2023-03-16T06:27:39;98980.75;;;1.49;100.00
37634;BME280;32048;49.902;22.508;2023-03-16T06:30:07;98977.16;;;1.60;100.00
37634;BME280;32048;49.902;22.508;2023-03-16T06:32:35;98977.75;;;1.79;100.00
37634;BME280;32048;49.902;22.508;2023-03-16T06:35:04;98980.09;;;2.01;100.00
37634;BME280;32048;49.902;22.508;2023-03-16T06:37:31;98985.72;;;2.32;100.00
37634;BME280;32048;49.902;22.508;2023-03-16T06:39:59;98992.16;;;2.67;100.00
37634;BME280;32048;49.902;22.508;2023-03-16T06:42:26;98998.50;;;3.02;100.00
37634;BME280;32048;49.902;22.508;2023-03-16T06:44:53;99003.06;;;3.39;100.00
37634;BME280;32048;49.902;22.508;2023-03-16T06:47:20;99006.47;;;3.86;97.31
37634;BME280;32048;49.902;22.508;2023-03-16T06:49:47;99011.81;;;4.22;93.84
37634;BME280;32048;49.902;22.508;2023-03-16T06:52:16;99018.50;;;4.33;89.84
37634;BME280;32048;49.902;22.508;2023-03-16T06:54:43;99018.53;;;4.32;87.86
37634;BME280;32048;49.902;22.508;2023-03-16T06:57:10;99013.63;;;4.18;87.91
37634;BME280;32048;49.902;22.508;2023-03-16T06:59:37;99021.56;;;4.13;88.47
37634;BME280;32048;49.902;22.508;2023-03-16T07:02:05;99024.13;;;4.54;90.22
37634;BME280;32048;49.902;22.508;2023-03-16T07:04:32;99023.84;;;5.02;87.30
37634;BME280;32048;49.902;22.508;2023-03-16T07:07:18;99023.19;;;5.27;82.56
37634;BME280;32048;49.902;22.508;2023-03-16T07:09:46;99031.34;;;5.49;81.85
37634;BME280;32048;49.902;22.508;2023-03-16T07:12:13;99029.47;;;5.85;80.35
37634;BME280;32048;49.902;22.508;2023-03-16T07:14:40;99035.94;;;6.04;78.58
37634;BME280;32048;49.902;22.508;2023-03-16T07:17:07;99027.25;;;6.02;76.09
37634;BME280;32048;49.902;22.508;2023-03-16T07:19:35;99042.81;;;5.77;76.58
37634;BME280;32048;49.902;22.508;2023-03-16T07:22:02;99038.19;;;5.54;78.09
37634;BME280;32048;49.902;22.508;2023-03-16T07:24:30;99044.16;;;5.27;78.98
37634;BME280;32048;49.902;22.508;2023-03-16T07:26:58;99045.66;;;5.03;80.70
37634;BME280;32048;49.902;22.508;2023-03-16T07:29:25;99045.81;;;4.95;81.74
37634;BME280;32048;49.902;22.508;2023-03-16T07:31:53;99047.94;;;4.81;81.52
37634;BME280;32048;49.902;22.508;2023-03-16T07:34:20;99053.44;;;4.68;82.84
37634;BME280;32048;49.902;22.508;2023-03-16T07:36:47;99052.59;;;4.68;84.06
37634;BME280;32048;49.902;22.508;2023-03-16T07:39:15;99045.94;;;4.90;86.15
37634;BME280;32048;49.902;22.508;2023-03-16T07:41:43;99053.94;;;5.53;87.74
37634;BME280;32048;49.902;22.508;2023-03-16T07:44:10;99050.09;;;6.29;80.47
37634;BME280;32048;49.902;22.508;2023-03-16T07:46:37;99046.88;;;7.03;77.11
37634;BME280;32048;49.902;22.508;2023-03-16T07:49:04;99051.97;;;7.60;72.91
37634;BME280;32048;49.902;22.508;2023-03-16T07:51:31;99060.63;;;7.63;66.68
37634;BME280;32048;49.902;22.508;2023-03-16T07:53:59;99061.13;;;7.48;67.91
37634;BME280;32048;49.902;22.508;2023-03-16T07:56:26;99059.66;;;7.14;69.85
37634;BME280;32048;49.902;22.508;2023-03-16T07:59:05;99067.81;;;6.78;69.62
37634;BME280;32048;49.902;22.508;2023-03-16T08:01:32;99067.69;;;6.55;72.17
37634;BME280;32048;49.902;22.508;2023-03-16T08:04:00;99062.84;;;6.41;74.10
37634;BME280;32048;49.902;22.508;2023-03-16T08:06:27;99068.00;;;6.44;76.07
37634;BME280;32048;49.902;22.508;2023-03-16T08:08:55;99076.03;;;6.68;76.78
37634;BME280;32048;49.902;22.508;2023-03-16T08:11:22;99074.41;;;6.92;74.59
37634;BME280;32048;49.902;22.508;2023-03-16T08:13:50;99073.72;;;7.13;73.18
37634;BME280;32048;49.902;22.508;2023-03-16T08:16:23;99076.06;;;7.47;72.99
37634;BME280;32048;49.902;22.508;2023-03-16T08:18:50;99075.00;;;7.78;68.87
37634;BME280;32048;49.902;22.508;2023-03-16T08:21:18;99078.41;;;8.05;67.78
37634;BME280;32048;49.902;22.508;2023-03-16T08:23:46;99081.59;;;8.37;67.37
37634;BME280;32048;49.902;22.508;2023-03-16T08:26:17;99084.13;;;8.64;64.48
37634;BME280;32048;49.902;22.508;2023-03-16T08:28:45;99082.31;;;8.66;63.16
37634;BME280;32048;49.902;22.508;2023-03-16T08:31:14;99091.75;;;8.48;60.77
37634;BME280;32048;49.902;22.508;2023-03-16T08:33:42;99096.25;;;8.21;64.13
37634;BME280;32048;49.902;22.508;2023-03-16T08:36:11;99096.84;;;8.04;63.77
37634;BME280;32048;49.902;22.508;2023-03-16T08:38:40;99101.97;;;7.83;66.54
37634;BME280;32048;49.902;22.508;2023-03-16T08:41:08;99101.34;;;7.77;66.47
37634;BME280;32048;49.902;22.508;2023-03-16T08:43:35;99105.94;;;7.70;67.64
37634;BME280;32048;49.902;22.508;2023-03-16T08:46:03;99106.31;;;7.59;67.07
37634;BME280;32048;49.902;22.508;2023-03-16T08:48:31;99110.75;;;7.57;67.99
37634;BME280;32048;49.902;22.508;2023-03-16T08:51:02;99112.94;;;7.96;68.71
37634;BME280;32048;49.902;22.508;2023-03-16T08:53:30;99109.16;;;8.52;64.25
37634;BME280;32048;49.902;22.508;2023-03-16T08:56:05;99106.78;;;9.12;64.19
37634;BME280;32048;49.902;22.508;2023-03-16T08:58:33;99110.81;;;9.43;58.63
37634;BME280;32048;49.902;22.508;2023-03-16T09:01:02;99112.53;;;10.05;59.24
37634;BME280;32048;49.902;22.508;2023-03-16T09:03:32;99117.28;;;10.57;53.92
37634;BME280;32048;49.902;22.508;2023-03-16T09:06:00;99110.06;;;10.79;53.73
37634;BME280;32048;49.902;22.508;2023-03-16T09:08:28;99116.72;;;11.24;53.93
37634;BME280;32048;49.902;22.508;2023-03-16T09:11:12;99107.28;;;11.55;51.76
37634;BME280;32048;49.902;22.508;2023-03-16T09:13:41;99111.53;;;11.93;51.92
37634;BME280;32048;49.902;22.508;2023-03-16T09:16:11;99113.16;;;12.46;51.42
37634;BME280;32048;49.902;22.508;2023-03-16T09:18:39;99115.84;;;13.09;47.03
37634;BME280;32048;49.902;22.508;2023-03-16T09:21:08;99117.16;;;13.34;45.58
37634;BME280;32048;49.902;22.508;2023-03-16T09:23:36;99119.31;;;13.58;44.21
37634;BME280;32048;49.902;22.508;2023-03-16T09:26:05;99118.22;;;13.46;42.60
37634;BME280;32048;49.902;22.508;2023-03-16T09:28:34;99115.84;;;13.25;44.53
37634;BME280;32048;49.902;22.508;2023-03-16T09:31:05;99116.25;;;13.18;44.94
37634;BME280;32048;49.902;22.508;2023-03-16T09:33:34;99115.06;;;13.23;44.80
37634;BME280;32048;49.902;22.508;2023-03-16T09:36:01;99119.88;;;13.17;43.73
37634;BME280;32048;49.902;22.508;2023-03-16T09:38:29;99124.75;;;12.77;44.56
37634;BME280;32048;49.902;22.508;2023-03-16T09:41:09;99125.25;;;12.01;45.75
37634;BME280;32048;49.902;22.508;2023-03-16T09:44:16;99130.09;;;11.39;48.02
37634;BME280;32048;49.902;22.508;2023-03-16T09:46:47;99131.34;;;10.95;49.21
37634;BME280;32048;49.902;22.508;2023-03-16T09:49:18;99128.72;;;10.76;51.20
37634;BME280;32048;49.902;22.508;2023-03-16T09:52:21;99125.13;;;10.96;52.92
37634;BME280;32048;49.902;22.508;2023-03-16T09:55:35;99133.31;;;11.63;47.66
37634;BME280;32048;49.902;22.508;2023-03-16T09:57:56;99129.47;;;11.88;47.80
37634;BME280;32048;49.902;22.508;2023-03-16T10:00:34;99126.03;;;12.69;45.10
37634;BME280;32048;49.902;22.508;2023-03-16T10:05:44;99131.34;;;15.90;40.07
37634;BME280;32048;49.902;22.508;2023-03-16T10:15:48;99130.47;;;17.88;31.87
37634;BME280;32048;49.902;22.508;2023-03-16T10:18:28;99129.31;;;17.79;32.12
37634;BME280;32048;49.902;22.508;2023-03-16T10:20:59;99134.72;;;16.94;31.72
37634;BME280;32048;49.902;22.508;2023-03-16T10:23:30;99132.22;;;16.03;33.35
37634;BME280;32048;49.902;22.508;2023-03-16T10:26:10;99135.75;;;14.95;35.19
37634;BME280;32048;49.902;22.508;2023-03-16T10:28:38;99135.53;;;13.98;36.83
37634;BME280;32048;49.902;22.508;2023-03-16T10:31:05;99135.84;;;13.47;39.31
37634;BME280;32048;49.902;22.508;2023-03-16T10:33:34;99129.19;;;14.14;37.53
37634;BME280;32048;49.902;22.508;2023-03-16T10:36:14;99135.44;;;15.14;36.20
37634;BME280;32048;49.902;22.508;2023-03-16T10:38:49;99128.56;;;16.55;34.81
37634;BME280;32048;49.902;22.508;2023-03-16T10:43:48;99124.72;;;19.18;30.57
37634;BME280;32048;49.902;22.508;2023-03-16T10:46:15;99126.44;;;19.19;27.57
37634;BME280;32048;49.902;22.508;2023-03-16T10:48:57;99130.03;;;18.05;28.78
37634;BME280;32048;49.902;22.508;2023-03-16T10:51:28;99131.03;;;17.80;29.28
37634;BME280;32048;49.902;22.508;2023-03-16T10:54:06;99132.44;;;17.97;29.84
37634;BME280;32048;49.902;22.508;2023-03-16T10:56:36;99127.09;;;18.78;28.44
37634;BME280;32048;49.902;22.508;2023-03-16T11:01:54;99117.34;;;20.59;26.09
37634;BME280;32048;49.902;22.508;2023-03-16T11:04:22;99122.44;;;20.62;24.60
37634;BME280;32048;49.902;22.508;2023-03-16T11:06:53;99124.72;;;19.50;26.01
37634;BME280;32048;49.902;22.508;2023-03-16T11:09:34;99120.78;;;17.87;27.79
37634;BME280;32048;49.902;22.508;2023-03-16T11:12:14;99131.34;;;16.03;29.88
37634;BME280;32048;49.902;22.508;2023-03-16T11:14:44;99129.69;;;14.79;31.63
37634;BME280;32048;49.902;22.508;2023-03-16T11:17:20;99126.13;;;13.92;32.85
37634;BME280;32048;49.902;22.508;2023-03-16T11:19:52;99136.28;;;13.07;33.92
37634;BME280;32048;49.902;22.508;2023-03-16T11:22:25;99130.31;;;12.88;36.17
37634;BME280;32048;49.902;22.508;2023-03-16T11:27:39;99120.16;;;15.03;34.50
37634;BME280;32048;49.902;22.508;2023-03-16T11:30:30;99120.16;;;16.36;31.83
37634;BME280;32048;49.902;22.508;2023-03-16T11:33:01;99115.03;;;17.08;29.81
37634;BME280;32048;49.902;22.508;2023-03-16T11:44:35;99119.75;;;13.50;32.84
37634;BME280;32048;49.902;22.508;2023-03-16T11:47:22;99129.84;;;12.64;34.44
37634;BME280;32048;49.902;22.508;2023-03-16T11:49:57;99134.28;;;11.79;35.36
37634;BME280;32048;49.902;22.508;2023-03-16T11:57:56;99144.22;;;9.85;40.98
37634;BME280;32048;49.902;22.508;2023-03-16T12:06:04;99135.38;;;9.86;45.05
37634;BME280;32048;49.902;22.508;2023-03-16T12:11:53;99131.00;;;13.07;38.00
37634;BME280;32048;49.902;22.508;2023-03-16T12:14:28;99124.00;;;14.13;32.58
37634;BME280;32048;49.902;22.508;2023-03-16T12:17:16;99122.00;;;14.45;31.45
37634;BME280;32048;49.902;22.508;2023-03-16T12:19:49;99121.91;;;14.47;31.58
37634;BME280;32048;49.902;22.508;2023-03-16T12:24:53;99133.44;;;13.26;32.64
37634;BME280;32048;49.902;22.508;2023-03-16T12:27:23;99126.78;;;12.56;33.82
37634;BME280;32048;49.902;22.508;2023-03-16T12:30:00;99126.81;;;11.88;35.02
37634;BME280;32048;49.902;22.508;2023-03-16T12:32:43;99127.13;;;11.64;36.18
37634;BME280;32048;49.902;22.508;2023-03-16T12:35:34;99133.72;;;12.25;36.41
37634;BME280;32048;49.902;22.508;2023-03-16T12:46:10;99129.09;;;12.28;34.16
37634;BME280;32048;49.902;22.508;2023-03-16T12:48:53;99129.44;;;12.56;34.49
37634;BME280;32048;49.902;22.508;2023-03-16T12:51:32;99125.56;;;13.25;33.00
37634;BME280;32048;49.902;22.508;2023-03-16T12:53:59;99134.41;;;13.71;30.44
37634;BME280;32048;49.902;22.508;2023-03-16T12:58:59;99137.94;;;15.03;28.62
37634;BME280;32048;49.902;22.508;2023-03-16T13:01:36;99138.03;;;15.28;27.33
37634;BME280;32048;49.902;22.508;2023-03-16T13:04:10;99131.75;;;15.56;27.91
37634;BME280;32048;49.902;22.508;2023-03-16T13:06:43;99141.56;;;15.96;27.66
37634;BME280;32048;49.902;22.508;2023-03-16T13:09:17;99137.22;;;16.20;26.70
37634;BME280;32048;49.902;22.508;2023-03-16T13:11:47;99139.00;;;16.46;27.17
37634;BME280;32048;49.902;22.508;2023-03-16T13:17:03;99149.44;;;17.00;25.02
37634;BME280;32048;49.902;22.508;2023-03-16T13:19:32;99140.69;;;16.98;26.22
37634;BME280;32048;49.902;22.508;2023-03-16T13:22:23;99139.44;;;16.65;25.80
37634;BME280;32048;49.902;22.508;2023-03-16T13:25:21;99150.03;;;16.79;25.58
37634;BME280;32048;49.902;22.508;2023-03-16T13:27:54;99149.56;;;16.34;25.26
37634;BME280;32048;49.902;22.508;2023-03-16T13:30:30;99153.63;;;16.02;25.53
37634;BME280;32048;49.902;22.508;2023-03-16T13:33:31;99158.56;;;15.53;26.43
37634;BME280;32048;49.902;22.508;2023-03-16T13:36:00;99147.38;;;15.48;25.69
37634;BME280;32048;49.902;22.508;2023-03-16T13:38:30;99151.50;;;15.39;25.64
37634;BME280;32048;49.902;22.508;2023-03-16T13:41:04;99154.66;;;14.90;25.88
37634;BME280;32048;49.902;22.508;2023-03-16T13:43:38;99152.47;;;14.40;26.42
37634;BME280;32048;49.902;22.508;2023-03-16T13:46:20;99153.91;;;13.86;27.17
37634;BME280;32048;49.902;22.508;2023-03-16T13:48:48;99160.31;;;13.52;27.59
37634;BME280;32048;49.902;22.508;2023-03-16T13:51:17;99164.44;;;12.94;29.24
37634;BME280;32048;49.902;22.508;2023-03-16T13:53:47;99166.69;;;12.35;31.43
37634;BME280;32048;49.902;22.508;2023-03-16T13:56:17;99161.72;;;11.77;32.32
37634;BME280;32048;49.902;22.508;2023-03-16T13:58:49;99163.72;;;11.18;33.46
37634;BME280;32048;49.902;22.508;2023-03-16T14:03:50;99158.31;;;10.45;35.40
37634;BME280;32048;49.902;22.508;2023-03-16T14:06:24;99159.50;;;10.17;36.07
37634;BME280;32048;49.902;22.508;2023-03-16T14:08:56;99160.28;;;9.99;36.05
37634;BME280;32048;49.902;22.508;2023-03-16T14:11:25;99162.72;;;9.83;36.05
37634;BME280;32048;49.902;22.508;2023-03-16T14:13:55;99162.84;;;9.60;34.78
37634;BME280;32048;49.902;22.508;2023-03-16T14:16:24;99161.56;;;9.48;34.72
37634;BME280;32048;49.902;22.508;2023-03-16T14:19:22;99175.50;;;9.29;35.04
37634;BME280;32048;49.902;22.508;2023-03-16T14:22:01;99171.63;;;9.16;36.10